Big Springs, NE (69122)

7:22 AM MDT on August 29, 2014 (GMT -0600)
MesoWest BIGSWS NE US UPR | Change Station
CLOSE
Current Station
Personal Weather Station
Location: Big Springs, NE
Elevation: 3356 ft
Nearby Weather Stations

Elev 3356 ft 41.07 °N, 102.02 °W | Updated 1 hour ago

Clear
Clear
53 °F
Feels Like 53 °F
N
8
Wind Variable Wind from WNW
Gusts 8.0 mph

Today
High -- | Low -- °F
--% Chance of Precip.
Yesterday
High -- | Low -- °F
Precip. -- in
6:12 AM 7:25 PM
Waxing Crescent, 14% visible
Pressure 29.96 in
Visibility 10.0 miles
Clouds Clear
Dew Point Not available.
Humidity Not available.
Rainfall -999.00 in
Snow Depth Not available.
UV 1 out of 12
Pollen 9.60 out of 12
Air Quality Not available.
Flu Activity Not available.
METAR KOGA 291315Z AUTO 25003KT 10SM CLR 11/11 A2996 RMK AO2 T01100105

More Conditions Fewer Conditions

Pressure 29.96 in
Visibility 10.0 miles
Clouds Clear
Dew Point Not available.
Humidity Not available.
Rainfall -999.00 in
Snow Depth Not available.
UV 1 out of 12
Pollen 9.60 out of 12
Air Quality Not available.
Flu Activity Not available.
METAR KOGA 291315Z AUTO 25003KT 10SM CLR 11/11 A2996 RMK AO2 T01100105

More Conditions Fewer Conditions

10-Day Weather Forecast

Almanac

Astronomy

Aug. 29, 2014 Rise Set
Actual Time 6:12 AM MDT 7:25 PM MDT
Civil Twilight 5:43 AM MDT 7:54 PM MDT
Nautical Twilight 5:09 AM MDT 8:28 PM MDT
Astronomical Twilight 4:33 AM MDT 9:04 PM MDT
Moon 10:06 AM MDT 9:22 PM MDT
Length of Visible Light 14h 10m
Length of Day
13h 13m
Tomorrow will be 2m 36s shorter.
Waxing Crescent, 14% of the Moon is Illuminated
Today
Waxing Crescent
Sep 2
First Quarter
Sep 8
Full
Sep 15
Last Quarter
Sep 24
New

Today's Extremes

State Highs State Lows

Community

WunderPhotos

Upload Photos

1,748,228 photos uploaded!

Nearby

Snow Depth

Station Depth Elevation
No new snow has been reported.

Earthquake Activity

City Distance Mag. Time & Date
No recent earthquake activity has been reported nearby.
Minimum magnitude displayed is 2.5.

Coastal Water Temperatures

Place Temperature
No Stations Reporting

Nearby Weather Stations